createdAt,value
2018-01-01T00:01:34.510Z,100490.53
2018-01-01T00:04:04.256Z,100484.59
2018-01-01T00:06:33.071Z,100491.80
2018-01-01T00:09:02.112Z,100492.65
2018-01-01T00:11:31.098Z,100495.25
2018-01-01T00:14:00.084Z,100496.52
2018-01-01T00:16:31.708Z,100503.16
2018-01-01T00:19:00.699Z,100506.47
2018-01-01T00:21:34.043Z,100509.22
2018-01-01T00:24:03.029Z,100509.71
2018-01-01T00:26:32.197Z,100516.50
2018-01-01T00:29:02.108Z,100505.13
2018-01-01T00:31:31.098Z,100512.64
2018-01-01T00:33:59.996Z,100500.70
2018-01-01T00:36:28.987Z,100512.73
2018-01-01T00:38:58.052Z,100500.08
2018-01-01T00:41:26.977Z,100501.50
2018-01-01T00:43:56.066Z,100489.91
2018-01-01T00:46:24.991Z,100485.02
2018-01-01T00:48:54.822Z,100487.03
2018-01-01T00:53:59.207Z,100477.03
2018-01-01T00:56:28.334Z,100476.09
2018-01-01T00:58:57.479Z,100469.19
2018-01-01T01:01:28.150Z,100471.91
2018-01-01T01:03:57.234Z,100469.03
2018-01-01T01:06:27.055Z,100472.50
2018-01-01T01:08:56.759Z,100468.72
2018-01-01T01:14:02.270Z,100475.01
2018-01-01T01:16:31.260Z,100478.94
2018-01-01T01:19:01.168Z,100479.72
2018-01-01T01:21:31.043Z,100475.73
2018-01-01T01:24:00.757Z,100472.27
2018-01-01T01:26:29.754Z,100469.45
2018-01-01T01:28:58.944Z,100466.86
2018-01-01T01:31:27.938Z,100460.62
2018-01-01T01:33:57.648Z,100452.19
2018-01-01T01:36:26.647Z,100452.69
2018-01-01T01:38:55.738Z,100439.86
2018-01-01T01:44:01.822Z,100442.97
2018-01-01T01:46:30.835Z,100446.00
2018-01-01T01:49:01.752Z,100449.69
2018-01-01T01:51:30.707Z,100450.53
2018-01-01T01:53:59.665Z,100446.44
2018-01-01T01:56:29.511Z,100452.87
2018-01-01T01:58:59.356Z,100447.97
2018-01-01T02:01:28.346Z,100451.98
2018-01-01T02:03:59.121Z,100439.95
2018-01-01T02:06:28.077Z,100441.38
2018-01-01T02:08:57.120Z,100438.61
2018-01-01T02:11:26.951Z,100445.09
2018-01-01T02:13:56.909Z,100446.00
2018-01-01T02:16:25.901Z,100437.29
2018-01-01T02:18:56.676Z,100428.47
2018-01-01T02:21:25.740Z,100426.00
2018-01-01T02:23:54.750Z,100431.97
2018-01-01T02:26:23.727Z,100427.34
2018-01-01T02:28:52.920Z,100424.45
2018-01-01T02:31:21.832Z,100418.53
2018-01-01T02:34:03.118Z,100408.47
2018-01-01T02:36:33.343Z,100402.63
2018-01-01T02:39:02.229Z,100403.09
2018-01-01T02:41:31.223Z,100398.45
2018-01-01T02:44:01.764Z,100401.00
2018-01-01T02:46:30.550Z,100396.37
2018-01-01T02:49:02.097Z,100390.94
2018-01-01T02:51:30.957Z,100391.73
2018-01-01T02:54:01.971Z,100387.11
2018-01-01T02:56:30.924Z,100390.01
2018-01-01T02:58:59.809Z,100387.48
2018-01-01T03:01:28.808Z,100390.88
2018-01-01T03:04:01.076Z,100386.67
2018-01-01T03:06:29.950Z,100394.70
2018-01-01T03:08:59.025Z,100388.38
2018-01-01T03:11:28.922Z,100386.20
2018-01-01T03:13:58.092Z,100380.22
2018-01-01T03:16:27.117Z,100377.32
2018-01-01T03:18:57.273Z,100378.12
2018-01-01T03:21:26.240Z,100374.30
2018-01-01T03:23:55.210Z,100366.31
2018-01-01T03:26:25.946Z,100365.10
2018-01-01T03:28:54.925Z,100372.28
2018-01-01T03:31:24.145Z,100378.53
2018-01-01T03:33:54.089Z,100369.66
2018-01-01T03:36:23.044Z,100375.23
2018-01-01T03:38:51.987Z,100371.83
2018-01-01T03:41:22.773Z,100370.58
2018-01-01T03:43:51.665Z,100378.94
2018-01-01T03:46:20.555Z,100385.67
2018-01-01T03:48:50.293Z,100386.06
2018-01-01T03:51:20.360Z,100390.16
2018-01-01T03:53:49.178Z,100384.19
2018-01-01T03:56:19.007Z,100393.34
2018-01-01T03:58:51.304Z,100392.08
2018-01-01T04:01:20.219Z,100381.59
2018-01-01T04:03:50.062Z,100391.69
2018-01-01T04:06:19.017Z,100391.72
2018-01-01T04:08:48.895Z,100393.88
2018-01-01T04:11:17.932Z,100391.81
2018-01-01T04:13:46.947Z,100395.19
2018-01-01T04:16:16.937Z,100396.46
2018-01-01T04:18:45.975Z,100394.88
2018-01-01T04:21:14.970Z,100398.72
2018-01-01T04:23:44.755Z,100394.50
2018-01-01T04:26:13.885Z,100395.78
2018-01-01T04:28:42.843Z,100395.38
2018-01-01T04:31:11.806Z,100396.31
2018-01-01T04:33:40.731Z,100395.94
2018-01-01T04:36:12.182Z,100395.17
2018-01-01T04:38:42.160Z,100393.09
2018-01-01T04:41:11.116Z,100396.91
2018-01-01T04:43:40.083Z,100380.90
2018-01-01T04:46:09.894Z,100383.05
2018-01-01T04:48:38.968Z,100397.75
2018-01-01T04:51:08.760Z,100398.98
2018-01-01T04:53:38.933Z,100403.56
2018-01-01T04:56:07.839Z,100416.61
2018-01-01T04:58:36.754Z,100415.33
2018-01-01T05:01:06.724Z,100411.35
2018-01-01T05:03:35.613Z,100412.88
2018-01-01T05:06:04.607Z,100409.73
2018-01-01T05:08:33.601Z,100414.38
2018-01-01T05:11:02.525Z,100408.80
2018-01-01T05:13:31.591Z,100409.14
2018-01-01T05:16:00.615Z,100406.17
2018-01-01T05:18:29.817Z,100405.41
2018-01-01T05:20:58.775Z,100404.98
2018-01-01T05:23:27.637Z,100414.70
2018-01-01T05:25:57.445Z,100412.48
2018-01-01T05:28:26.496Z,100410.88
2018-01-01T05:30:57.145Z,100417.16
2018-01-01T05:33:26.139Z,100416.75
2018-01-01T05:35:55.194Z,100420.11
2018-01-01T05:38:25.286Z,100419.67
2018-01-01T05:40:54.944Z,100416.96
2018-01-01T05:43:23.819Z,100416.39
2018-01-01T05:45:53.763Z,100413.85
2018-01-01T05:48:22.824Z,100413.50
2018-01-01T05:50:52.483Z,100416.98
2018-01-01T05:53:21.422Z,100421.19
2018-01-01T05:55:51.132Z,100418.35
2018-01-01T05:58:20.932Z,100428.09
2018-01-01T06:00:50.702Z,100428.08
2018-01-01T06:03:19.656Z,100423.73
2018-01-01T06:05:48.507Z,100424.58
2018-01-01T06:08:21.568Z,100432.99
2018-01-01T06:10:50.483Z,100428.36
2018-01-01T06:13:20.306Z,100449.38
2018-01-01T06:15:49.636Z,100451.33
2018-01-01T06:18:18.750Z,100455.27
2018-01-01T06:20:47.640Z,100455.34
2018-01-01T06:23:16.730Z,100458.71
2018-01-01T06:25:45.784Z,100463.45
2018-01-01T06:28:14.675Z,100462.26
2018-01-01T06:30:44.526Z,100465.75
2018-01-01T06:33:13.785Z,100469.58
2018-01-01T06:35:42.881Z,100473.88
2018-01-01T06:38:13.718Z,100478.66
2018-01-01T06:40:42.815Z,100478.38
2018-01-01T06:43:11.914Z,100486.45
2018-01-01T06:45:41.823Z,100486.56
2018-01-01T06:48:10.714Z,100487.08
2018-01-01T06:50:39.564Z,100485.89
2018-01-01T06:53:09.460Z,100481.36
2018-01-01T06:55:38.519Z,100492.46
2018-01-01T06:58:07.510Z,100479.02
2018-01-01T07:00:37.497Z,100472.32
2018-01-01T07:03:08.058Z,100479.12
2018-01-01T07:05:36.953Z,100478.80
2018-01-01T07:08:06.992Z,100479.64
2018-01-01T07:10:35.961Z,100479.67
2018-01-01T07:13:05.982Z,100476.71
2018-01-01T07:15:34.878Z,100477.61
2018-01-01T07:18:03.770Z,100480.21
2018-01-01T07:20:32.972Z,100482.34
2018-01-01T07:25:36.166Z,100488.72
2018-01-01T07:28:05.070Z,100487.03
2018-01-01T07:30:35.850Z,100486.61
2018-01-01T07:33:04.936Z,100495.48
2018-01-01T07:35:33.874Z,100495.95
2018-01-01T07:38:10.199Z,100501.87
2018-01-01T07:40:39.384Z,100499.75
2018-01-01T07:43:09.085Z,100499.75
2018-01-01T07:48:12.573Z,100505.70
2018-01-01T07:50:41.565Z,100509.09
2018-01-01T07:53:11.639Z,100512.05
2018-01-01T07:55:42.473Z,100509.53
2018-01-01T07:58:11.453Z,100512.91
2018-01-01T08:00:42.250Z,100520.94
2018-01-01T08:03:11.438Z,100511.65
2018-01-01T08:05:40.957Z,100506.13
2018-01-01T08:08:10.688Z,100506.13
2018-01-01T08:10:39.662Z,100503.16
2018-01-01T08:13:08.588Z,100509.51
2018-01-01T08:15:38.498Z,100504.03
2018-01-01T08:18:07.536Z,100510.38
2018-01-01T08:20:36.551Z,100507.39
2018-01-01T08:23:07.242Z,100510.35
2018-01-01T08:25:36.080Z,100509.94
2018-01-01T08:28:05.081Z,100504.84
2018-01-01T08:30:34.925Z,100510.32
2018-01-01T08:33:04.705Z,100502.27
2018-01-01T08:35:33.586Z,100502.70
2018-01-01T08:38:04.333Z,100495.52
2018-01-01T08:40:33.465Z,100503.95
2018-01-01T08:43:03.234Z,100499.70
2018-01-01T08:45:34.700Z,100504.80
2018-01-01T08:48:03.783Z,100503.52
2018-01-01T08:50:32.761Z,100502.70
2018-01-01T08:53:01.805Z,100513.72
2018-01-01T08:55:30.864Z,100498.01
2018-01-01T08:57:59.789Z,100509.47
2018-01-01T09:00:28.787Z,100504.39
2018-01-01T09:02:58.562Z,100512.03
2018-01-01T09:05:27.663Z,100509.02
2018-01-01T09:07:57.453Z,100505.63
2018-01-01T09:10:27.338Z,100496.36
2018-01-01T09:12:56.222Z,100475.55
2018-01-01T09:15:25.249Z,100484.43
2018-01-01T09:17:54.161Z,100479.32
2018-01-01T09:20:23.081Z,100472.09
2018-01-01T09:22:51.983Z,100472.47
2018-01-01T09:25:20.862Z,100474.61
2018-01-01T09:27:49.731Z,100474.59
2018-01-01T09:30:20.465Z,100470.84
2018-01-01T09:32:49.690Z,100468.72
2018-01-01T09:35:18.657Z,100463.23
2018-01-01T09:37:49.452Z,100465.28
2018-01-01T09:40:18.445Z,100465.67
2018-01-01T09:42:56.041Z,100459.67
2018-01-01T09:45:25.781Z,100453.34
2018-01-01T09:47:54.643Z,100445.36
2018-01-01T09:50:24.599Z,100446.59
2018-01-01T09:52:54.783Z,100444.08
2018-01-01T09:55:24.643Z,100437.70
2018-01-01T09:57:53.764Z,100441.17
2018-01-01T10:00:22.803Z,100440.70
2018-01-01T10:02:51.824Z,100431.77
2018-01-01T10:05:23.467Z,100434.24
2018-01-01T10:07:52.438Z,100432.94
2018-01-01T10:10:22.152Z,100417.23
2018-01-01T10:12:52.139Z,100415.45
2018-01-01T10:15:22.072Z,100411.23
2018-01-01T10:17:50.946Z,100409.07
2018-01-01T10:20:20.872Z,100396.31
2018-01-01T10:22:50.175Z,100395.95
2018-01-01T10:25:19.035Z,100387.56
2018-01-01T10:27:49.241Z,100395.97
2018-01-01T10:30:19.114Z,100398.88
2018-01-01T10:32:48.102Z,100398.81
2018-01-01T10:35:18.843Z,100399.65
2018-01-01T10:37:47.866Z,100403.44
2018-01-01T10:40:16.821Z,100402.25
2018-01-01T10:42:46.714Z,100404.73
2018-01-01T10:45:16.629Z,100402.63
2018-01-01T10:47:45.645Z,100397.08
2018-01-01T10:50:16.390Z,100401.38
2018-01-01T10:52:45.300Z,100400.58
2018-01-01T10:55:14.368Z,100394.55
2018-01-01T10:57:44.239Z,100399.61
2018-01-01T11:00:13.174Z,100401.13
2018-01-01T11:02:42.269Z,100396.45
2018-01-01T11:05:12.243Z,100389.25
2018-01-01T11:07:41.228Z,100393.60
2018-01-01T11:10:10.173Z,100385.11
2018-01-01T11:12:39.274Z,100390.21
2018-01-01T11:15:08.266Z,100387.35
2018-01-01T11:17:37.257Z,100384.83
2018-01-01T11:20:06.277Z,100380.60
2018-01-01T11:22:38.046Z,100385.28
2018-01-01T11:25:08.715Z,100387.05
2018-01-01T11:27:38.728Z,100392.44
2018-01-01T11:30:07.627Z,100390.81
2018-01-01T11:32:39.516Z,100390.40
2018-01-01T11:35:08.540Z,100388.63
2018-01-01T11:37:38.294Z,100384.38
2018-01-01T11:40:07.189Z,100369.09
2018-01-01T11:42:36.032Z,100372.98
2018-01-01T11:45:05.045Z,100366.67
2018-01-01T11:47:36.936Z,100365.78
2018-01-01T11:50:05.844Z,100364.96
2018-01-01T11:52:34.840Z,100360.31
2018-01-01T11:55:04.994Z,100359.52
2018-01-01T11:57:33.850Z,100353.14
2018-01-01T12:00:03.810Z,100359.55
2018-01-01T12:02:32.760Z,100357.92
2018-01-01T12:05:01.992Z,100352.44
2018-01-01T12:07:30.885Z,100349.47
2018-01-01T12:10:00.628Z,100349.02
2018-01-01T12:12:29.584Z,100347.35
2018-01-01T12:14:58.559Z,100351.08
2018-01-01T12:17:29.282Z,100347.71
2018-01-01T12:19:58.163Z,100341.33
2018-01-01T12:22:27.166Z,100347.27
2018-01-01T12:24:57.591Z,100344.82
2018-01-01T12:27:26.461Z,100351.17
2018-01-01T12:29:55.517Z,100343.53
2018-01-01T12:32:24.509Z,100348.21
2018-01-01T12:34:56.312Z,100344.80
2018-01-01T12:37:27.791Z,100350.30
2018-01-01T12:39:56.662Z,100354.48
2018-01-01T12:42:25.775Z,100349.83
2018-01-01T12:44:55.621Z,100345.58
2018-01-01T12:47:25.511Z,100350.27
2018-01-01T12:49:54.434Z,100347.27
2018-01-01T12:52:24.311Z,100352.77
2018-01-01T12:54:53.514Z,100346.47
2018-01-01T12:57:22.505Z,100352.02
2018-01-01T12:59:54.224Z,100359.17
2018-01-01T13:02:23.880Z,100362.12
2018-01-01T13:04:55.343Z,100363.48
2018-01-01T13:07:24.615Z,100367.33
2018-01-01T13:09:54.368Z,100377.51
2018-01-01T13:12:23.259Z,100376.66
2018-01-01T13:14:52.323Z,100377.52
2018-01-01T13:17:21.314Z,100380.90
2018-01-01T13:19:50.492Z,100379.63
2018-01-01T13:22:19.614Z,100382.59
2018-01-01T13:24:48.673Z,100381.73
2018-01-01T13:27:19.142Z,100376.22
2018-01-01T13:29:48.119Z,100369.05
2018-01-01T13:32:17.932Z,100365.67
2018-01-01T13:34:49.478Z,100362.70
2018-01-01T13:37:18.381Z,100368.63
2018-01-01T13:39:47.616Z,100368.61
2018-01-01T13:42:18.660Z,100369.91
2018-01-01T13:44:47.671Z,100364.00
2018-01-01T13:47:16.611Z,100367.80
2018-01-01T13:49:46.425Z,100351.29
2018-01-01T13:52:15.317Z,100348.35
2018-01-01T13:54:44.184Z,100349.18
2018-01-01T13:57:14.829Z,100338.59
2018-01-01T13:59:44.956Z,100339.04
2018-01-01T14:02:13.825Z,100337.78
2018-01-01T14:04:43.714Z,100337.38
2018-01-01T14:07:12.810Z,100341.58
2018-01-01T14:09:41.733Z,100344.56
2018-01-01T14:12:12.299Z,100350.45
2018-01-01T14:14:41.286Z,100347.07
2018-01-01T14:17:11.220Z,100347.94
2018-01-01T14:19:40.226Z,100344.53
2018-01-01T14:22:09.199Z,100343.27
2018-01-01T14:24:38.383Z,100338.18
2018-01-01T14:27:08.990Z,100334.80
2018-01-01T14:29:37.979Z,100338.61
2018-01-01T14:32:06.897Z,100334.34
2018-01-01T14:34:38.788Z,100332.23
2018-01-01T14:37:09.083Z,100330.12
2018-01-01T14:39:37.973Z,100332.16
2018-01-01T14:42:06.963Z,100333.05
2018-01-01T14:44:36.884Z,100329.28
2018-01-01T14:47:06.080Z,100324.59
2018-01-01T14:49:35.828Z,100324.14
2018-01-01T14:52:04.888Z,100317.80
2018-01-01T14:54:33.983Z,100322.44
2018-01-01T14:57:04.776Z,100322.02
2018-01-01T14:59:33.688Z,100319.48
2018-01-01T15:02:03.416Z,100318.64
2018-01-01T15:04:33.234Z,100327.92
2018-01-01T15:07:03.184Z,100325.34
2018-01-01T15:09:32.216Z,100314.34
2018-01-01T15:12:01.167Z,100324.06
2018-01-01T15:14:30.941Z,100324.01
2018-01-01T15:17:00.764Z,100319.78
2018-01-01T15:19:29.861Z,100321.40
2018-01-01T15:21:58.963Z,100319.27
2018-01-01T15:24:27.945Z,100319.27
2018-01-01T15:27:00.735Z,100313.78
2018-01-01T15:29:29.724Z,100316.73
2018-01-01T15:31:59.601Z,100322.21
2018-01-01T15:34:30.376Z,100317.56
2018-01-01T15:37:00.337Z,100323.41
2018-01-01T15:39:29.425Z,100326.36
2018-01-01T15:44:33.212Z,100329.29
2018-01-01T15:47:03.333Z,100325.90
2018-01-01T15:49:37.316Z,100322.52
2018-01-01T15:52:06.226Z,100324.20
2018-01-01T15:54:36.257Z,100330.47
2018-01-01T15:57:06.199Z,100334.22
2018-01-01T15:59:35.266Z,100330.81
2018-01-01T16:02:04.242Z,100319.80
2018-01-01T16:04:34.273Z,100309.23
2018-01-01T16:07:03.405Z,100312.61
2018-01-01T16:09:32.340Z,100304.16
2018-01-01T16:12:01.447Z,100303.41
2018-01-01T16:14:30.489Z,100303.86
2018-01-01T16:17:00.171Z,100302.17
2018-01-01T16:19:31.073Z,100298.37
2018-01-01T16:22:00.814Z,100308.50
2018-01-01T16:24:29.809Z,100300.49
2018-01-01T16:27:00.689Z,100305.94
2018-01-01T16:29:30.323Z,100303.84
2018-01-01T16:31:59.588Z,100299.62
2018-01-01T16:34:29.572Z,100294.48
2018-01-01T16:36:58.545Z,100302.91
2018-01-01T16:39:27.698Z,100296.59
2018-01-01T16:41:57.623Z,100298.65
2018-01-01T16:44:27.726Z,100292.34
2018-01-01T16:46:56.737Z,100293.63
2018-01-01T16:49:28.478Z,100291.96
2018-01-01T16:51:57.451Z,100288.14
2018-01-01T16:54:26.878Z,100288.58
2018-01-01T16:57:02.632Z,100285.59
2018-01-01T16:59:31.491Z,100287.67
2018-01-01T17:02:00.425Z,100283.48
2018-01-01T17:04:29.270Z,100283.11
2018-01-01T17:06:58.146Z,100291.55
2018-01-01T17:09:26.955Z,100293.24
2018-01-01T17:11:55.856Z,100293.20
2018-01-01T17:14:24.662Z,100294.02
2018-01-01T17:16:53.462Z,100294.45
2018-01-01T17:19:22.416Z,100290.27
2018-01-01T17:21:51.269Z,100294.05
2018-01-01T17:24:20.134Z,100294.49
2018-01-01T17:26:49.844Z,100291.97
2018-01-01T17:29:18.709Z,100294.97
2018-01-01T17:31:47.633Z,100297.05
2018-01-01T17:34:17.460Z,100290.36
2018-01-01T17:36:46.443Z,100291.18
2018-01-01T17:39:15.383Z,100292.03
2018-01-01T17:41:44.367Z,100284.86
2018-01-01T17:44:13.403Z,100277.23
2018-01-01T17:46:51.079Z,100286.08
2018-01-01T17:49:19.962Z,100273.81
2018-01-01T17:51:48.847Z,100279.73
2018-01-01T17:54:17.877Z,100282.70
2018-01-01T17:56:46.791Z,100276.84
2018-01-01T17:59:15.647Z,100276.01
2018-01-01T18:01:44.557Z,100278.88
2018-01-01T18:04:13.477Z,100275.94
2018-01-01T18:06:42.341Z,100277.64
2018-01-01T18:11:44.950Z,100286.50
2018-01-01T18:14:13.781Z,100281.87
2018-01-01T18:16:44.591Z,100267.50
2018-01-01T18:19:13.474Z,100265.36
2018-01-01T18:21:42.296Z,100256.09
2018-01-01T18:24:14.942Z,100258.61
2018-01-01T18:26:44.005Z,100263.20
2018-01-01T18:29:12.829Z,100260.24
2018-01-01T18:31:41.690Z,100271.61
2018-01-01T18:34:10.550Z,100265.69
2018-01-01T18:36:39.434Z,100263.12
2018-01-01T18:39:08.385Z,100260.92
2018-01-01T18:41:37.228Z,100265.94
2018-01-01T18:44:07.098Z,100264.66
2018-01-01T18:46:36.784Z,100254.56
2018-01-01T18:49:05.610Z,100249.91
2018-01-01T18:51:34.429Z,100250.67
2018-01-01T18:54:03.324Z,100240.13
2018-01-01T18:56:32.168Z,100230.89
2018-01-01T18:59:01.018Z,100227.94
2018-01-01T19:01:29.867Z,100223.31
2018-01-01T19:03:58.644Z,100216.16
2018-01-01T19:06:27.455Z,100216.57
2018-01-01T19:08:56.261Z,100207.73
2018-01-01T19:11:25.080Z,100205.63
2018-01-01T19:13:53.891Z,100205.20
2018-01-01T19:16:22.725Z,100199.30
2018-01-01T19:18:51.884Z,100195.88
2018-01-01T19:21:20.837Z,100194.62
2018-01-01T19:23:51.425Z,100187.06
2018-01-01T19:26:20.260Z,100197.61
2018-01-01T19:28:49.144Z,100198.05
2018-01-01T19:31:18.030Z,100191.73
2018-01-01T19:33:46.850Z,100188.77
2018-01-01T19:36:15.750Z,100190.83
2018-01-01T19:38:46.335Z,100195.86
2018-01-01T19:41:15.117Z,100200.06
2018-01-01T19:43:43.948Z,100199.64
2018-01-01T19:46:14.615Z,100197.05
2018-01-01T19:48:43.508Z,100192.82
2018-01-01T19:51:12.324Z,100184.83
2018-01-01T19:53:43.934Z,100178.92
2018-01-01T19:56:12.735Z,100179.77
2018-01-01T19:58:42.463Z,100179.37
2018-01-01T20:01:12.962Z,100177.27
2018-01-01T20:03:41.786Z,100179.38
2018-01-01T20:06:10.622Z,100178.53
2018-01-01T20:08:42.367Z,100181.47
2018-01-01T20:11:11.170Z,100174.69
2018-01-01T20:13:40.011Z,100174.30
2018-01-01T20:16:09.816Z,100180.59
2018-01-01T20:18:38.746Z,100178.89
2018-01-01T20:21:07.652Z,100178.86
2018-01-01T20:23:37.569Z,100170.05
2018-01-01T20:26:06.498Z,100170.95
2018-01-01T20:28:35.374Z,100172.28
2018-01-01T20:31:04.579Z,100170.19
2018-01-01T20:33:33.583Z,100176.09
2018-01-01T20:36:02.562Z,100170.62
2018-01-01T20:38:33.062Z,100176.13
2018-01-01T20:41:01.872Z,100173.60
2018-01-01T20:43:30.764Z,100175.28
2018-01-01T20:45:59.691Z,100172.71
2018-01-01T20:48:28.581Z,100167.16
2018-01-01T20:50:57.390Z,100164.64
2018-01-01T20:53:28.096Z,100155.37
2018-01-01T20:55:57.026Z,100155.79
2018-01-01T20:58:25.874Z,100157.95
2018-01-01T21:00:54.796Z,100154.95
2018-01-01T21:03:23.766Z,100154.12
2018-01-01T21:05:54.917Z,100155.87
2018-01-01T21:08:23.834Z,100154.63
2018-01-01T21:10:52.654Z,100152.93
2018-01-01T21:13:21.640Z,100161.34
2018-01-01T21:15:51.631Z,100158.41
2018-01-01T21:18:20.474Z,100141.98
2018-01-01T21:20:49.482Z,100141.59
2018-01-01T21:23:18.450Z,100142.45
2018-01-01T21:25:47.323Z,100157.18
2018-01-01T21:28:16.412Z,100149.61
2018-01-01T21:30:45.373Z,100140.36
2018-01-01T21:33:14.267Z,100146.24
2018-01-01T21:35:43.205Z,100154.23
2018-01-01T21:38:12.114Z,100161.35
2018-01-01T21:40:41.078Z,100148.72
2018-01-01T21:43:09.977Z,100144.52
2018-01-01T21:45:38.860Z,100145.36
2018-01-01T21:48:07.698Z,100149.56
2018-01-01T21:50:36.677Z,100145.77
2018-01-01T21:53:11.618Z,100151.23
2018-01-01T21:55:40.477Z,100148.27
2018-01-01T21:58:09.462Z,100147.86
2018-01-01T22:03:13.199Z,100145.78
2018-01-01T22:05:42.026Z,100150.87
2018-01-01T22:08:14.070Z,100142.93
2018-01-01T22:10:42.939Z,100139.94
2018-01-01T22:13:11.820Z,100128.20
2018-01-01T22:15:42.459Z,100129.45
2018-01-01T22:18:11.456Z,100125.19
2018-01-01T22:20:40.284Z,100120.56
2018-01-01T22:25:44.554Z,100108.75
2018-01-01T22:28:13.509Z,100104.12
2018-01-01T22:30:42.705Z,100102.88
2018-01-01T22:33:11.801Z,100101.59
2018-01-01T22:35:40.794Z,100094.02
2018-01-01T22:38:10.685Z,100095.27
2018-01-01T22:40:42.827Z,100097.81
2018-01-01T22:43:12.812Z,100091.52
2018-01-01T22:45:41.877Z,100096.97
2018-01-01T22:48:10.997Z,100098.23
2018-01-01T22:50:41.931Z,100101.18
2018-01-01T22:53:11.166Z,100101.19
2018-01-01T22:55:40.132Z,100090.30
2018-01-01T22:58:10.955Z,100087.77
2018-01-01T23:00:40.105Z,100081.90
2018-01-01T23:03:10.171Z,100078.55
2018-01-01T23:05:42.336Z,100079.02
2018-01-01T23:08:11.535Z,100079.03
2018-01-01T23:10:40.530Z,100071.86
2018-01-01T23:13:10.298Z,100065.97
2018-01-01T23:15:39.234Z,100059.23
2018-01-01T23:18:08.020Z,100059.23
2018-01-01T23:20:37.008Z,100055.88
2018-01-01T23:23:06.008Z,100052.92
2018-01-01T23:25:36.948Z,100043.23
2018-01-01T23:28:06.044Z,100029.38
2018-01-01T23:30:35.141Z,100025.59
2018-01-01T23:33:04.132Z,100029.39
2018-01-01T23:35:33.133Z,100026.89
2018-01-01T23:38:02.128Z,100024.79
2018-01-01T23:40:31.048Z,100026.05
2018-01-01T23:43:00.826Z,100027.73
2018-01-01T23:45:30.128Z,100032.77
2018-01-01T23:47:59.046Z,100029.38
2018-01-01T23:50:32.006Z,100025.59
2018-01-01T23:53:01.101Z,100024.75
2018-01-01T23:55:31.145Z,100018.47
2018-01-01T23:58:00.315Z,100023.10
